Time;durP1;ratioP1;P1;durP2;ratioP2;P2;SDS_P1;SDS_P2;PMS_P1;PMS_P2;Temp;Humidity;BMP_temperature;BMP_pressure;BME280_temperature;BME280_humidity;BME280_pressure;Samples;Min_cycle;Max_cycle;Signal;HPM_P1;HPM_P2
2021/01/21 00:01:20;;;;;;;0.60;0.50;;;7.90;99.90;;;;;;5014480;28;20539;-47
2021/01/21 00:03:48;;;;;;;0.60;0.40;;;7.90;99.90;;;;;;5014248;28;20453;-47
2021/01/21 00:06:14;;;;;;;2.10;0.50;;;7.90;99.90;;;;;;5014191;28;20445;-47
2021/01/21 00:08:41;;;;;;;0.87;0.40;;;7.80;99.90;;;;;;5014378;28;20449;-47
2021/01/21 00:11:08;;;;;;;0.57;0.40;;;7.90;99.90;;;;;;5012431;28;20476;-47
2021/01/21 00:13:34;;;;;;;0.70;0.40;;;8.00;99.90;;;;;;5004686;28;20458;-47
2021/01/21 00:16:01;;;;;;;0.63;0.50;;;8.10;99.90;;;;;;4996195;28;20501;-47
2021/01/21 00:18:28;;;;;;;0.50;0.30;;;8.10;99.90;;;;;;4994681;28;20868;-47
2021/01/21 00:20:55;;;;;;;0.60;0.50;;;8.00;99.90;;;;;;4994715;28;20482;-47
2021/01/21 00:23:21;;;;;;;0.70;0.47;;;8.10;99.90;;;;;;4994442;28;20461;-47
2021/01/21 00:25:50;;;;;;;1.10;0.50;;;8.10;99.90;;;;;;4994262;28;20978;-47
2021/01/21 00:28:17;;;;;;;0.60;0.40;;;8.10;99.90;;;;;;4994584;28;20894;-47
2021/01/21 00:30:44;;;;;;;0.50;0.40;;;8.00;99.90;;;;;;5012209;28;20477;-47
2021/01/21 00:33:11;;;;;;;1.40;0.60;;;7.80;99.90;;;;;;5014071;28;20563;-47
2021/01/21 00:35:37;;;;;;;0.80;0.40;;;7.90;99.90;;;;;;5011927;28;20853;-47
2021/01/21 00:38:05;;;;;;;0.50;0.37;;;7.80;99.90;;;;;;5012751;28;20457;-47
2021/01/21 00:40:31;;;;;;;0.50;0.40;;;7.90;99.90;;;;;;5014034;28;20488;-47
2021/01/21 00:42:58;;;;;;;0.70;0.50;;;7.80;99.90;;;;;;5013943;28;20457;-47
2021/01/21 00:45:24;;;;;;;1.20;0.50;;;7.80;99.90;;;;;;5004995;28;20512;-47
2021/01/21 00:47:51;;;;;;;1.20;0.50;;;7.80;99.90;;;;;;4995689;28;20517;-47
2021/01/21 00:50:17;;;;;;;0.50;0.33;;;7.90;99.90;;;;;;4994326;28;20473;-47
2021/01/21 00:52:44;;;;;;;1.10;0.50;;;7.90;99.90;;;;;;4993974;28;20455;-47
2021/01/21 00:55:12;;;;;;;0.63;0.40;;;7.90;99.90;;;;;;5009202;28;20458;-47
2021/01/21 00:57:39;;;;;;;0.63;0.40;;;7.90;99.90;;;;;;5007843;28;20453;-47
2021/01/21 01:00:08;;;;;;;0.90;0.57;;;7.80;99.90;;;;;;5006474;28;20482;-47
2021/01/21 01:02:34;;;;;;;4.83;0.60;;;7.80;99.90;;;;;;4993778;28;20509;-47
2021/01/21 01:05:01;;;;;;;0.67;0.40;;;7.80;99.90;;;;;;4993674;28;20450;-47
2021/01/21 01:07:28;;;;;;;1.27;0.50;;;7.80;99.90;;;;;;5005348;28;20469;-47
2021/01/21 01:09:54;;;;;;;0.80;0.47;;;7.70;99.90;;;;;;5011434;28;20511;-47
2021/01/21 01:12:22;;;;;;;0.70;0.50;;;7.60;99.90;;;;;;5003039;28;20461;-47
2021/01/21 01:14:48;;;;;;;0.50;0.40;;;7.70;99.90;;;;;;5007107;28;20467;-47
2021/01/21 01:17:15;;;;;;;0.60;0.40;;;7.70;99.90;;;;;;5013182;28;20897;-47
2021/01/21 01:19:41;;;;;;;0.70;0.50;;;7.80;99.90;;;;;;5011944;28;20474;-47
2021/01/21 01:22:08;;;;;;;0.70;0.50;;;7.90;99.90;;;;;;5010753;28;20484;-46
2021/01/21 01:24:35;;;;;;;0.50;0.40;;;7.80;99.90;;;;;;5011069;28;20465;-47
2021/01/21 01:27:01;;;;;;;0.50;0.30;;;7.80;99.90;;;;;;5012737;28;20449;-46
2021/01/21 01:29:29;;;;;;;0.50;0.40;;;7.90;99.90;;;;;;5012809;28;20828;-47
2021/01/21 01:31:55;;;;;;;0.50;0.40;;;8.00;99.90;;;;;;5013001;28;20965;-47
2021/01/21 01:34:22;;;;;;;0.60;0.40;;;8.10;99.90;;;;;;5002800;28;20451;-47
2021/01/21 01:36:48;;;;;;;0.50;0.30;;;8.40;99.90;;;;;;4993060;28;20450;-47
2021/01/21 01:39:15;;;;;;;1.33;0.40;;;8.30;99.90;;;;;;4994241;28;20561;-46
2021/01/21 01:41:41;;;;;;;1.10;0.40;;;8.20;99.90;;;;;;4997726;28;20496;-47
2021/01/21 01:44:08;;;;;;;1.00;0.40;;;8.20;99.90;;;;;;5012443;28;21006;-46
2021/01/21 01:46:35;;;;;;;0.50;0.40;;;8.00;99.90;;;;;;5012445;28;20457;-47
2021/01/21 01:49:02;;;;;;;0.73;0.40;;;7.80;99.90;;;;;;4998135;28;20458;-47
2021/01/21 01:51:29;;;;;;;0.70;0.47;;;7.90;99.90;;;;;;4993099;28;20497;-47
2021/01/21 01:53:56;;;;;;;0.90;0.40;;;8.00;99.90;;;;;;4996776;28;20830;-49
2021/01/21 01:56:22;;;;;;;0.63;0.50;;;8.00;99.90;;;;;;5010470;28;20449;-46
2021/01/21 01:58:52;;;;;;;0.50;0.40;;;8.00;99.90;;;;;;4998118;28;20453;-47
2021/01/21 02:01:18;;;;;;;0.50;0.30;;;7.90;99.90;;;;;;5010412;28;20491;-49
2021/01/21 02:03:48;;;;;;;0.90;0.43;;;8.00;99.90;;;;;;5008212;28;20466;-48
2021/01/21 02:06:15;;;;;;;0.50;0.40;;;8.00;99.90;;;;;;5005488;28;20903;-49
2021/01/21 02:08:42;;;;;;;0.60;0.40;;;8.00;99.90;;;;;;5004551;28;20503;-47
2021/01/21 02:11:28;;;;;;;0.60;0.40;;;7.90;99.90;;;;;;5007359;28;21005;-46
2021/01/21 02:14:02;;;;;;;0.60;0.40;;;8.10;99.90;;;;;;5005813;28;20582;-47
2021/01/21 02:16:57;;;;;;;0.60;0.50;;;8.10;99.90;;;;;;5019007;28;20833;-47
2021/01/21 02:19:57;;;;;;;0.67;0.50;;;8.20;99.90;;;;;;4953944;28;20453;-47
2021/01/21 02:23:08;;;;;;;0.60;0.40;;;8.30;99.90;;;;;;5003096;28;20464;-47
2021/01/21 02:25:43;;;;;;;0.50;0.40;;;8.20;99.90;;;;;;4903199;29;20963;-48
2021/01/21 02:28:48;;;;;;;0.60;0.40;;;8.10;99.90;;;;;;4978114;28;20469;-47
2021/01/21 02:31:29;;;;;;;0.60;0.40;;;7.90;99.90;;;;;;4995577;28;21028;-47
2021/01/21 02:34:00;;;;;;;0.50;0.40;;;8.10;99.90;;;;;;5004861;28;20459;-47
2021/01/21 02:36:32;;;;;;;0.50;0.40;;;8.10;99.90;;;;;;4999912;28;21133;-47
2021/01/21 02:39:01;;;;;;;0.70;0.40;;;8.00;99.90;;;;;;5023728;28;20819;-47
2021/01/21 02:41:28;;;;;;;0.70;0.50;;;7.90;99.90;;;;;;5005040;28;20485;-47
2021/01/21 02:43:55;;;;;;;0.50;0.40;;;8.00;99.90;;;;;;5011161;28;20464;-47
2021/01/21 02:46:21;;;;;;;0.50;0.40;;;8.10;99.90;;;;;;5011097;28;20457;-47
2021/01/21 02:48:51;;;;;;;2.20;0.90;;;8.10;99.90;;;;;;5010477;28;20450;-46
2021/01/21 02:51:24;;;;;;;1.90;0.40;;;8.10;99.90;;;;;;4991929;28;20473;-47
2021/01/21 02:54:02;;;;;;;0.67;0.50;;;8.10;99.90;;;;;;4994987;28;20544;-47
2021/01/21 02:56:32;;;;;;;0.90;0.40;;;8.20;99.90;;;;;;4997458;28;20536;-47
2021/01/21 02:59:02;;;;;;;0.60;0.50;;;8.10;99.90;;;;;;4991782;28;20862;-47
2021/01/21 03:01:31;;;;;;;1.13;0.50;;;8.00;99.90;;;;;;5002221;28;20481;-47
2021/01/21 03:03:59;;;;;;;0.50;0.40;;;7.90;99.90;;;;;;5005613;28;20450;-47
2021/01/21 03:06:29;;;;;;;3.27;0.60;;;7.80;99.90;;;;;;4996772;28;20482;-47
2021/01/21 03:08:58;;;;;;;0.50;0.40;;;7.80;99.90;;;;;;4991757;28;20537;-47
2021/01/21 03:11:25;;;;;;;0.60;0.40;;;7.90;99.90;;;;;;4992900;28;20523;-47
2021/01/21 03:13:52;;;;;;;0.90;0.50;;;8.00;99.90;;;;;;5002675;28;20484;-47
2021/01/21 03:16:18;;;;;;;0.80;0.57;;;8.00;99.90;;;;;;5010229;28;20452;-47
2021/01/21 03:18:49;;;;;;;0.60;0.40;;;8.10;99.90;;;;;;5009321;28;20450;-47
2021/01/21 03:21:17;;;;;;;0.50;0.40;;;8.10;99.90;;;;;;4992613;28;20851;-47
2021/01/21 03:23:44;;;;;;;0.60;0.40;;;8.30;99.90;;;;;;4991795;28;20528;-47
2021/01/21 03:26:11;;;;;;;0.60;0.40;;;8.30;99.90;;;;;;4991191;28;20450;-47
2021/01/21 03:28:41;;;;;;;0.50;0.40;;;8.50;99.90;;;;;;5003482;28;20954;-47
2021/01/21 03:31:07;;;;;;;0.50;0.40;;;8.40;99.90;;;;;;4992185;28;20947;-47
2021/01/21 03:33:34;;;;;;;1.13;0.60;;;8.60;99.90;;;;;;4992222;28;21033;-47
2021/01/21 03:36:00;;;;;;;0.67;0.50;;;8.60;99.90;;;;;;4998114;28;20446;-47
2021/01/21 03:38:27;;;;;;;0.50;0.30;;;8.50;99.90;;;;;;4991105;28;20530;-47
2021/01/21 03:40:54;;;;;;;0.60;0.50;;;8.50;99.90;;;;;;4990864;28;20482;-47
2021/01/21 03:43:21;;;;;;;1.07;0.40;;;8.40;99.90;;;;;;4999919;28;20802;-47
2021/01/21 03:45:47;;;;;;;0.50;0.30;;;8.50;99.90;;;;;;4993836;28;20453;-47
2021/01/21 03:48:13;;;;;;;0.50;0.30;;;8.60;99.90;;;;;;4991230;28;20454;-47
2021/01/21 03:50:40;;;;;;;0.50;0.30;;;8.70;99.90;;;;;;5006529;28;20833;-47
2021/01/21 03:53:06;;;;;;;0.53;0.40;;;8.80;99.90;;;;;;5010777;28;20453;-47
2021/01/21 03:55:33;;;;;;;0.50;0.40;;;8.90;99.90;;;;;;4993366;28;20482;-47
2021/01/21 03:58:00;;;;;;;0.50;0.30;;;8.70;99.90;;;;;;4997114;28;20977;-47
2021/01/21 04:00:27;;;;;;;0.50;0.40;;;8.80;99.90;;;;;;4994778;28;20870;-47
2021/01/21 04:02:53;;;;;;;0.50;0.40;;;8.80;99.90;;;;;;4991079;28;20442;-47
2021/01/21 04:05:20;;;;;;;0.50;0.40;;;8.90;99.90;;;;;;5006002;28;20576;-47
2021/01/21 04:07:46;;;;;;;0.50;0.40;;;8.90;99.90;;;;;;5010944;28;20453;-47
2021/01/21 04:10:13;;;;;;;0.60;0.40;;;8.80;99.90;;;;;;5008785;28;20473;-47
2021/01/21 04:12:39;;;;;;;1.37;0.60;;;8.90;99.90;;;;;;5006321;28;20462;-47
2021/01/21 04:15:09;;;;;;;0.60;0.50;;;8.60;99.90;;;;;;4990786;28;20457;-47
2021/01/21 04:17:36;;;;;;;2.20;0.50;;;8.50;99.90;;;;;;4992115;28;20537;-47
2021/01/21 04:20:02;;;;;;;2.20;0.40;;;8.60;99.90;;;;;;5001389;28;20476;-48
2021/01/21 04:22:29;;;;;;;0.80;0.50;;;8.90;99.90;;;;;;5010310;28;20872;-48
2021/01/21 04:24:55;;;;;;;1.17;0.40;;;8.90;99.90;;;;;;4998518;28;20465;-48
2021/01/21 04:27:22;;;;;;;0.50;0.40;;;8.90;99.90;;;;;;4992132;28;20455;-47
2021/01/21 04:29:48;;;;;;;2.30;0.40;;;8.90;99.90;;;;;;5000976;28;21022;-47
2021/01/21 04:32:15;;;;;;;0.60;0.40;;;8.90;99.90;;;;;;4991969;28;20501;-47
2021/01/21 04:34:42;;;;;;;0.60;0.43;;;8.80;99.90;;;;;;4990923;28;20521;-48
2021/01/21 04:37:08;;;;;;;0.60;0.60;;;8.60;99.90;;;;;;4991005;28;20454;-48
2021/01/21 04:39:35;;;;;;;0.60;0.40;;;8.80;99.90;;;;;;4994485;28;20958;-48
2021/01/21 04:42:01;;;;;;;1.53;0.40;;;8.70;99.90;;;;;;5005613;28;20486;-48
2021/01/21 04:44:28;;;;;;;0.50;0.40;;;8.60;99.90;;;;;;5008738;28;20487;-48
2021/01/21 04:46:55;;;;;;;0.60;0.40;;;8.40;99.90;;;;;;5013985;28;20480;-47
2021/01/21 04:49:23;;;;;;;1.03;0.40;;;8.30;99.90;;;;;;5013718;28;20803;-48
2021/01/21 04:51:52;;;;;;;0.60;0.43;;;8.20;99.90;;;;;;5012173;28;20450;-48
2021/01/21 04:54:32;;;;;;;0.50;0.40;;;8.30;99.90;;;;;;4997527;28;20491;-48
2021/01/21 04:57:03;;;;;;;0.60;0.40;;;8.50;99.90;;;;;;5006919;28;20449;-47
2021/01/21 04:59:35;;;;;;;0.60;0.50;;;8.60;99.90;;;;;;5011244;28;20538;-47
2021/01/21 05:02:03;;;;;;;0.77;0.40;;;8.80;99.90;;;;;;4993695;28;20481;-48
2021/01/21 05:04:31;;;;;;;0.50;0.33;;;8.80;99.90;;;;;;4993590;28;20525;-48
2021/01/21 05:06:57;;;;;;;1.33;0.40;;;8.80;99.90;;;;;;5001624;28;20449;-47
2021/01/21 05:09:24;;;;;;;1.03;0.40;;;8.80;99.90;;;;;;5013409;28;20456;-48
2021/01/21 05:11:51;;;;;;;0.50;0.40;;;8.80;99.90;;;;;;5012438;28;20457;-47
2021/01/21 05:14:17;;;;;;;0.60;0.50;;;8.70;99.90;;;;;;5013115;28;20511;-47
2021/01/21 05:16:44;;;;;;;0.60;0.40;;;8.80;99.90;;;;;;5010995;28;20536;-48
2021/01/21 05:19:14;;;;;;;0.60;0.50;;;8.80;99.90;;;;;;5004524;28;20465;-48
2021/01/21 05:21:42;;;;;;;0.50;0.40;;;8.70;99.90;;;;;;5012608;28;20576;-47
2021/01/21 05:24:11;;;;;;;0.50;0.30;;;8.90;99.90;;;;;;5014909;28;20476;-48
2021/01/21 05:26:39;;;;;;;0.60;0.40;;;8.70;99.90;;;;;;5020081;28;20510;-48
2021/01/21 05:29:06;;;;;;;0.50;0.40;;;8.70;99.90;;;;;;4993576;28;20792;-48
2021/01/21 05:31:33;;;;;;;0.50;0.40;;;8.70;99.90;;;;;;4997842;28;20484;-47
2021/01/21 05:34:00;;;;;;;0.80;0.40;;;8.60;99.90;;;;;;4993331;28;20525;-48
2021/01/21 05:36:26;;;;;;;0.60;0.40;;;8.40;99.90;;;;;;4993623;28;20446;-48
2021/01/21 05:38:58;;;;;;;0.50;0.40;;;8.40;99.90;;;;;;4993453;28;20505;-47
2021/01/21 05:41:25;;;;;;;0.60;0.40;;;8.60;99.90;;;;;;4994118;28;20480;-48
2021/01/21 05:43:52;;;;;;;0.60;0.40;;;8.50;99.90;;;;;;5014366;23;20505;-50
2021/01/21 05:46:19;;;;;;;0.60;0.50;;;8.40;99.90;;;;;;4985336;28;20451;-49
2021/01/21 05:48:46;;;;;;;0.80;0.50;;;8.40;99.90;;;;;;4983177;28;20826;-49
2021/01/21 05:51:13;;;;;;;0.50;0.40;;;8.40;99.90;;;;;;5002964;28;20492;-49
2021/01/21 05:53:43;;;;;;;0.60;0.50;;;8.40;99.90;;;;;;4983803;28;20494;-49
2021/01/21 05:56:12;;;;;;;0.60;0.50;;;8.60;99.90;;;;;;4972452;28;20470;-49
2021/01/21 05:58:43;;;;;;;1.67;0.50;;;8.50;99.90;;;;;;4979767;28;20457;-48
2021/01/21 06:01:12;;;;;;;0.60;0.40;;;8.40;99.90;;;;;;4972337;28;20486;-49
2021/01/21 06:03:45;;;;;;;0.60;0.50;;;8.50;99.90;;;;;;4972782;28;20981;-49
2021/01/21 06:06:13;;;;;;;0.50;0.40;;;8.50;99.90;;;;;;4971798;28;20451;-49
2021/01/21 06:08:44;;;;;;;0.50;0.40;;;8.30;99.90;;;;;;4972612;28;20447;-49
2021/01/21 06:11:12;;;;;;;0.60;0.50;;;8.30;99.90;;;;;;4988592;28;20450;-49
2021/01/21 06:13:39;;;;;;;1.37;0.40;;;8.60;99.90;;;;;;4988034;28;20463;-50
2021/01/21 06:16:08;;;;;;;1.00;0.50;;;8.60;99.90;;;;;;4971734;28;20459;-50
2021/01/21 06:18:35;;;;;;;0.90;0.50;;;8.50;99.90;;;;;;4980653;28;20452;-50
2021/01/21 06:21:03;;;;;;;0.70;0.40;;;8.50;99.90;;;;;;4982646;28;20603;-49
2021/01/21 06:23:32;;;;;;;0.53;0.40;;;8.70;99.90;;;;;;4991820;28;20474;-50
2021/01/21 06:25:59;;;;;;;0.70;0.50;;;8.60;99.90;;;;;;4974367;28;20458;-49
2021/01/21 06:28:28;;;;;;;0.80;0.50;;;8.50;99.90;;;;;;4972519;28;20459;-49
2021/01/21 06:30:58;;;;;;;0.90;0.50;;;8.50;99.90;;;;;;4972324;28;20454;-49
2021/01/21 06:33:29;;;;;;;1.57;0.50;;;8.50;99.90;;;;;;4972070;28;20463;-50
2021/01/21 06:36:02;;;;;;;0.60;0.47;;;8.40;99.90;;;;;;4972627;28;20521;-50
2021/01/21 06:38:34;;;;;;;1.83;0.50;;;8.20;99.90;;;;;;4953197;28;20463;-50
2021/01/21 06:41:03;;;;;;;0.60;0.50;;;8.30;99.90;;;;;;4952969;28;20527;-50
2021/01/21 06:43:35;;;;;;;0.60;0.50;;;8.40;99.90;;;;;;4961204;28;20520;-49
2021/01/21 06:46:02;;;;;;;0.60;0.40;;;8.30;99.90;;;;;;4990901;28;20496;-51
2021/01/21 06:48:29;;;;;;;0.53;0.47;;;8.30;99.90;;;;;;4990145;28;20478;-51
2021/01/21 06:50:57;;;;;;;0.60;0.50;;;8.20;99.90;;;;;;4991575;28;20442;-51
2021/01/21 06:53:25;;;;;;;1.00;0.50;;;8.20;99.90;;;;;;4991424;28;20489;-50
2021/01/21 06:55:52;;;;;;;0.60;0.50;;;8.30;99.90;;;;;;4989603;28;20997;-51
2021/01/21 06:58:48;;;;;;;0.70;0.40;;;8.50;99.90;;;;;;4989698;28;20455;-50
2021/01/21 07:01:51;;;;;;;0.50;0.50;;;8.50;99.90;;;;;;4988612;28;20534;-50
2021/01/21 07:04:35;;;;;;;1.83;0.70;;;8.50;99.90;;;;;;4959421;28;20483;-50
2021/01/21 07:07:06;;;;;;;0.90;0.60;;;8.40;99.90;;;;;;4960477;28;21099;-51
2021/01/21 07:09:36;;;;;;;0.60;0.50;;;8.20;99.90;;;;;;4971502;28;20459;-50
2021/01/21 07:12:04;;;;;;;0.60;0.47;;;8.10;99.90;;;;;;4971955;28;20451;-51
2021/01/21 07:14:34;;;;;;;0.60;0.50;;;8.00;99.90;;;;;;4971120;28;20471;-51
2021/01/21 07:17:03;;;;;;;1.03;0.80;;;8.20;99.90;;;;;;4971687;28;20960;-50
2021/01/21 07:19:37;;;;;;;1.37;0.80;;;8.40;99.90;;;;;;4975835;28;20459;-50
2021/01/21 07:22:23;;;;;;;2.10;0.70;;;8.40;99.90;;;;;;4984524;28;20487;-51
2021/01/21 07:24:54;;;;;;;0.80;0.70;;;8.40;99.90;;;;;;4971193;28;20518;-50
2021/01/21 07:27:21;;;;;;;0.60;0.50;;;8.50;99.90;;;;;;4972690;28;20483;-50
2021/01/21 07:29:49;;;;;;;0.97;0.50;;;8.50;99.90;;;;;;4982214;28;20454;-50
2021/01/21 07:32:26;;;;;;;0.67;0.60;;;8.50;99.90;;;;;;4990720;28;20478;-51
2021/01/21 07:34:53;;;;;;;0.60;0.60;;;8.70;99.90;;;;;;4990902;28;20481;-50
2021/01/21 07:37:27;;;;;;;0.70;0.70;;;8.80;99.90;;;;;;4983699;28;20493;-50
2021/01/21 07:40:03;;;;;;;0.60;0.50;;;8.90;99.90;;;;;;4972555;28;20455;-49
2021/01/21 07:42:50;;;;;;;0.80;0.60;;;8.90;99.90;;;;;;4970971;28;20925;-50
2021/01/21 07:45:31;;;;;;;0.57;0.50;;;8.90;99.90;;;;;;4952040;28;20496;-50
2021/01/21 07:48:17;;;;;;;2.47;0.43;;;8.90;99.90;;;;;;4962314;28;20463;-50
2021/01/21 07:50:44;;;;;;;0.50;0.40;;;9.10;99.90;;;;;;4976619;28;20478;-50
2021/01/21 07:53:20;;;;;;;0.77;0.53;;;9.20;99.90;;;;;;4983167;28;20530;-50
2021/01/21 07:55:48;;;;;;;1.60;0.40;;;9.20;99.90;;;;;;4971292;28;20462;-50
2021/01/21 07:58:22;;;;;;;0.87;0.60;;;9.30;99.90;;;;;;4971181;28;20953;-51
2021/01/21 08:00:51;;;;;;;1.30;0.53;;;9.10;99.90;;;;;;4971002;28;20910;-50
2021/01/21 08:03:29;;;;;;;0.60;0.40;;;9.10;99.90;;;;;;4971104;28;20471;-50
2021/01/21 08:06:10;;;;;;;0.60;0.47;;;9.00;99.90;;;;;;4971327;28;20457;-51
2021/01/21 08:08:37;;;;;;;2.53;1.03;;;9.00;99.90;;;;;;4971207;28;20892;-51
2021/01/21 08:11:05;;;;;;;0.70;0.60;;;9.00;99.90;;;;;;4970680;28;20455;-51
2021/01/21 08:13:33;;;;;;;0.60;0.50;;;8.90;99.90;;;;;;4971330;28;20471;-51
2021/01/21 08:16:01;;;;;;;1.30;0.67;;;8.80;99.90;;;;;;4974900;28;20491;-51
2021/01/21 08:18:28;;;;;;;0.80;0.50;;;8.70;99.90;;;;;;4974852;28;20967;-51
2021/01/21 08:20:55;;;;;;;0.60;0.50;;;8.80;99.90;;;;;;4978001;28;20538;-51
2021/01/21 08:23:22;;;;;;;0.60;0.40;;;9.00;99.90;;;;;;4974692;28;20493;-49
2021/01/21 08:25:50;;;;;;;0.70;0.60;;;9.30;99.90;;;;;;4974710;28;20459;-51
2021/01/21 08:28:18;;;;;;;0.80;0.50;;;9.30;99.90;;;;;;4974596;28;20463;-51
2021/01/21 08:30:45;;;;;;;0.70;0.60;;;9.20;99.90;;;;;;4975102;28;20455;-51
2021/01/21 08:33:15;;;;;;;1.60;0.97;;;9.30;99.90;;;;;;4975679;28;20470;-51
2021/01/21 08:35:47;;;;;;;1.30;0.60;;;9.50;99.90;;;;;;4985305;28;20450;-50
2021/01/21 08:38:16;;;;;;;1.00;0.90;;;9.60;99.90;;;;;;4974370;28;20847;-51
2021/01/21 08:40:43;;;;;;;0.70;0.50;;;9.60;99.90;;;;;;4973960;28;20455;-51
2021/01/21 08:43:11;;;;;;;0.80;0.60;;;9.60;99.90;;;;;;4974365;28;20529;-51
2021/01/21 08:45:38;;;;;;;0.70;0.50;;;9.80;99.90;;;;;;4974150;28;20903;-51
2021/01/21 08:48:05;;;;;;;0.70;0.50;;;10.20;99.90;;;;;;4974414;28;20455;-51
2021/01/21 08:50:38;;;;;;;0.60;0.50;;;10.30;99.90;;;;;;4974362;28;20458;-51
2021/01/21 08:53:08;;;;;;;0.60;0.50;;;10.30;99.90;;;;;;4973952;28;20473;-51
2021/01/21 08:55:43;;;;;;;0.60;0.50;;;10.40;99.90;;;;;;4982623;28;20466;-51
2021/01/21 08:58:11;;;;;;;0.70;0.63;;;10.70;99.80;;;;;;4976101;28;20447;-51
2021/01/21 09:00:39;;;;;;;1.00;0.60;;;10.60;99.80;;;;;;4974036;28;20447;-51
2021/01/21 09:03:06;;;;;;;1.00;0.70;;;10.50;99.70;;;;;;4973991;28;20598;-50
2021/01/21 09:05:33;;;;;;;2.90;0.70;;;10.40;99.40;;;;;;4973723;28;20451;-51
2021/01/21 09:08:06;;;;;;;1.00;0.90;;;10.40;99.90;;;;;;4973886;28;20456;-51
2021/01/21 09:10:42;;;;;;;1.13;0.80;;;10.10;99.90;;;;;;4974275;28;20459;-51
2021/01/21 09:13:08;;;;;;;1.53;1.10;;;10.20;99.90;;;;;;4973518;28;20479;-51
2021/01/21 09:15:52;;;;;;;0.70;0.60;;;10.20;99.90;;;;;;4976972;28;20527;-50
2021/01/21 09:18:21;;;;;;;0.60;0.50;;;10.30;99.80;;;;;;4973682;28;20455;-50
2021/01/21 09:20:48;;;;;;;1.53;1.40;;;10.20;99.40;;;;;;4973863;28;20450;-50
2021/01/21 09:23:18;;;;;;;3.03;1.90;;;10.40;99.50;;;;;;4973762;28;20849;-51
2021/01/21 09:25:45;;;;;;;4.30;2.30;;;10.40;99.60;;;;;;4972660;28;20469;-51
2021/01/21 09:28:13;;;;;;;0.90;0.63;;;10.70;99.50;;;;;;4973605;28;20974;-51
2021/01/21 09:30:40;;;;;;;1.63;1.43;;;10.60;99.30;;;;;;4973413;28;20809;-50
2021/01/21 09:33:06;;;;;;;1.10;0.90;;;10.50;99.20;;;;;;4973294;28;20558;-50
2021/01/21 09:35:33;;;;;;;0.70;0.60;;;10.70;99.20;;;;;;4973237;28;20463;-50
2021/01/21 09:38:01;;;;;;;1.30;0.67;;;10.90;98.80;;;;;;4973360;28;20811;-51
2021/01/21 09:40:29;;;;;;;0.80;0.80;;;11.20;98.30;;;;;;4973322;28;20506;-51
2021/01/21 09:42:57;;;;;;;0.80;0.70;;;11.20;98.90;;;;;;4973014;28;20491;-51
2021/01/21 09:45:25;;;;;;;1.13;0.50;;;11.50;98.40;;;;;;4973151;28;20463;-51
2021/01/21 09:47:51;;;;;;;0.77;0.70;;;11.70;98.20;;;;;;4973745;28;20463;-51
2021/01/21 09:50:19;;;;;;;0.70;0.60;;;11.40;98.10;;;;;;4973776;28;20516;-51
2021/01/21 09:52:46;;;;;;;0.77;0.60;;;11.30;98.30;;;;;;4973542;28;20467;-51
2021/01/21 09:55:13;;;;;;;0.70;0.60;;;11.20;98.60;;;;;;4973333;28;20513;-50
2021/01/21 09:57:41;;;;;;;1.10;0.70;;;11.10;99.00;;;;;;4973101;28;20442;-51
2021/01/21 10:00:09;;;;;;;1.20;0.60;;;11.00;98.60;;;;;;4973601;28;20521;-51
2021/01/21 10:02:36;;;;;;;0.80;0.70;;;10.80;98.90;;;;;;4973262;28;20487;-51
2021/01/21 10:05:03;;;;;;;0.80;0.70;;;10.40;99.60;;;;;;4972702;28;20885;-51
2021/01/21 10:07:30;;;;;;;0.70;0.60;;;10.20;99.90;;;;;;4972922;28;20596;-51
2021/01/21 10:09:56;;;;;;;0.70;0.70;;;10.40;99.80;;;;;;4972957;28;20465;-51
2021/01/21 10:12:23;;;;;;;1.90;0.80;;;10.70;99.80;;;;;;4973007;28;20454;-51
2021/01/21 10:14:50;;;;;;;1.10;1.00;;;11.00;99.80;;;;;;4980984;28;21127;-50
2021/01/21 10:17:17;;;;;;;1.10;1.00;;;11.40;99.30;;;;;;4979483;28;20501;-51
2021/01/21 10:19:43;;;;;;;1.73;1.00;;;11.80;98.70;;;;;;4992532;28;20450;-51
2021/01/21 10:22:10;;;;;;;0.80;0.60;;;12.10;98.10;;;;;;4979342;28;20476;-51
2021/01/21 10:24:37;;;;;;;0.60;0.50;;;12.30;97.90;;;;;;4972619;28;20502;-51
2021/01/21 10:27:03;;;;;;;1.30;0.60;;;12.60;97.40;;;;;;4971279;28;21481;-51
2021/01/21 10:29:30;;;;;;;0.80;0.70;;;12.70;97.30;;;;;;4972376;28;20239;-51
2021/01/21 10:31:57;;;;;;;0.73;0.50;;;12.70;97.30;;;;;;4972603;28;20447;-51
2021/01/21 10:34:24;;;;;;;0.73;0.57;;;12.90;96.60;;;;;;4972177;28;20475;-50
2021/01/21 10:36:50;;;;;;;0.97;0.60;;;12.70;96.60;;;;;;4972274;28;20455;-50
2021/01/21 10:39:17;;;;;;;2.10;0.70;;;13.10;96.40;;;;;;4972068;28;20537;-52
2021/01/21 10:41:44;;;;;;;0.70;0.60;;;13.10;95.90;;;;;;4975440;28;20509;-50
2021/01/21 10:44:10;;;;;;;0.60;0.50;;;13.00;95.70;;;;;;4989945;28;20547;-51
2021/01/21 10:46:37;;;;;;;0.70;0.50;;;12.90;95.80;;;;;;4991827;28;20450;-50
2021/01/21 10:49:04;;;;;;;1.27;0.80;;;12.80;96.10;;;;;;4991806;28;20447;-50
2021/01/21 10:51:31;;;;;;;0.80;0.70;;;12.70;96.40;;;;;;4991966;28;20465;-50
2021/01/21 10:53:57;;;;;;;1.20;0.97;;;12.60;96.30;;;;;;4991149;28;21041;-51
2021/01/21 10:56:24;;;;;;;1.40;0.80;;;12.70;96.40;;;;;;4991088;28;20502;-50
2021/01/21 10:58:50;;;;;;;0.60;0.57;;;12.90;96.60;;;;;;4980527;28;20681;-50
2021/01/21 11:01:17;;;;;;;0.70;0.60;;;13.30;96.30;;;;;;4971770;28;20483;-50
2021/01/21 11:03:44;;;;;;;2.40;0.63;;;13.80;95.60;;;;;;4971898;28;20475;-50
2021/01/21 11:06:11;;;;;;;0.60;0.50;;;13.90;95.10;;;;;;4971626;28;21270;-51
2021/01/21 11:08:38;;;;;;;1.00;0.60;;;13.90;94.80;;;;;;4971722;28;20514;-50
2021/01/21 11:11:04;;;;;;;0.70;0.50;;;13.70;94.80;;;;;;4971938;28;20444;-50
2021/01/21 11:13:32;;;;;;;0.60;0.50;;;13.70;94.70;;;;;;4971490;28;20482;-50
2021/01/21 11:15:59;;;;;;;0.70;0.50;;;13.70;95.30;;;;;;4971665;28;20509;-50
2021/01/21 11:18:25;;;;;;;1.00;0.50;;;13.30;95.20;;;;;;4971668;28;21042;-50
2021/01/21 11:20:52;;;;;;;2.70;0.80;;;13.10;95.70;;;;;;4971481;28;20451;-50
2021/01/21 11:23:20;;;;;;;0.50;0.50;;;13.40;95.60;;;;;;4971480;28;20482;-49
2021/01/21 11:25:46;;;;;;;0.60;0.60;;;13.40;95.30;;;;;;4971531;28;20452;-50
2021/01/21 11:28:13;;;;;;;0.80;0.70;;;12.70;96.00;;;;;;4971689;28;20546;-51
2021/01/21 11:30:39;;;;;;;0.60;0.60;;;12.50;96.20;;;;;;4971539;28;20447;-51
2021/01/21 11:33:06;;;;;;;0.70;0.47;;;12.20;96.50;;;;;;4987338;28;20831;-51
2021/01/21 11:35:32;;;;;;;0.90;0.60;;;12.20;96.50;;;;;;4990605;28;20461;-51
2021/01/21 11:37:59;;;;;;;0.60;0.60;;;12.30;96.70;;;;;;4986167;28;20474;-51
2021/01/21 11:40:26;;;;;;;0.70;0.70;;;12.10;96.70;;;;;;4971127;28;20459;-51
2021/01/21 11:42:53;;;;;;;3.53;0.93;;;12.10;96.30;;;;;;4996537;23;20457;-48
2021/01/21 11:45:19;;;;;;;0.90;0.70;;;12.10;96.70;;;;;;4990206;28;20446;-49
2021/01/21 11:47:47;;;;;;;0.60;0.60;;;12.10;96.70;;;;;;4990745;28;20437;-48
2021/01/21 11:50:16;;;;;;;0.90;0.60;;;12.10;96.80;;;;;;4994761;28;20211;-48
2021/01/21 11:52:43;;;;;;;0.97;0.53;;;12.00;96.80;;;;;;4994383;28;20442;-49
2021/01/21 11:55:12;;;;;;;0.60;0.60;;;11.80;98.20;;;;;;4994408;28;20454;-49
2021/01/21 11:57:40;;;;;;;4.47;3.83;;;11.90;96.80;;;;;;4993561;28;20473;-48
2021/01/21 12:00:08;;;;;;;7.70;5.60;;;11.70;98.20;;;;;;4998450;28;21029;-48
2021/01/21 12:02:35;;;;;;;6.83;5.20;;;11.30;98.90;;;;;;5007494;28;20489;-48
2021/01/21 12:05:01;;;;;;;6.80;4.67;;;10.70;99.90;;;;;;5014080;28;20801;-48
2021/01/21 12:07:28;;;;;;;6.43;4.60;;;10.20;99.90;;;;;;5009191;28;20455;-49
2021/01/21 12:09:55;;;;;;;7.40;5.07;;;9.20;99.90;;;;;;4993438;28;20454;-48
2021/01/21 12:12:21;;;;;;;8.17;4.77;;;9.30;99.90;;;;;;4993767;28;20438;-48
2021/01/21 12:14:49;;;;;;;4.93;3.60;;;9.10;99.90;;;;;;4993915;28;20474;-48
2021/01/21 12:17:16;;;;;;;6.17;4.10;;;9.20;99.90;;;;;;4994097;28;20453;-48
2021/01/21 12:19:43;;;;;;;5.23;4.30;;;8.70;99.90;;;;;;4994382;28;20450;-48
2021/01/21 12:22:10;;;;;;;6.13;3.90;;;8.60;99.90;;;;;;4993910;28;20488;-48
2021/01/21 12:24:37;;;;;;;6.00;4.20;;;8.90;99.90;;;;;;4993575;28;20470;-48
2021/01/21 12:27:03;;;;;;;5.23;3.70;;;9.00;99.90;;;;;;4994035;28;20450;-48
2021/01/21 12:29:30;;;;;;;8.50;5.17;;;8.90;99.90;;;;;;4993704;28;20457;-48
2021/01/21 12:31:58;;;;;;;3.87;2.90;;;8.90;99.90;;;;;;4993568;28;20446;-48
2021/01/21 12:34:25;;;;;;;5.13;3.50;;;9.00;99.90;;;;;;4993655;28;20509;-48
2021/01/21 12:36:52;;;;;;;3.30;2.77;;;9.20;99.90;;;;;;4993498;28;20530;-49
2021/01/21 12:39:19;;;;;;;2.50;2.23;;;9.50;99.90;;;;;;4993157;28;20454;-48
2021/01/21 12:41:45;;;;;;;4.07;2.57;;;9.80;99.90;;;;;;4993397;28;20470;-48
2021/01/21 12:44:12;;;;;;;5.03;3.57;;;10.00;99.90;;;;;;4993190;28;20482;-48
2021/01/21 12:46:38;;;;;;;4.93;3.43;;;10.10;99.90;;;;;;4993798;28;20451;-48
2021/01/21 12:49:06;;;;;;;5.70;3.73;;;10.10;99.90;;;;;;4993289;28;20454;-48
2021/01/21 12:51:32;;;;;;;5.40;4.33;;;9.70;99.90;;;;;;4993741;28;20446;-47
2021/01/21 12:53:59;;;;;;;5.43;4.23;;;9.50;99.90;;;;;;4993443;28;20477;-48
2021/01/21 12:56:25;;;;;;;4.40;2.97;;;9.40;99.90;;;;;;4993444;28;20458;-48
2021/01/21 12:58:52;;;;;;;2.40;2.20;;;9.40;99.90;;;;;;4993218;28;20450;-47
2021/01/21 13:01:19;;;;;;;5.30;3.27;;;9.70;99.90;;;;;;4992642;28;20450;-48
2021/01/21 13:03:45;;;;;;;7.70;4.37;;;9.70;99.90;;;;;;4993738;28;20474;-48